Time;durP1;ratioP1;P1;durP2;ratioP2;P2;SDS_P1;SDS_P2;PMS_P1;PMS_P2;Temp;Humidity;BMP_temperature;BMP_pressure;BME280_temperature;BME280_humidity;BME280_pressure;Samples;Min_cycle;Max_cycle;Signal;HPM_P1;HPM_P2
2023/12/28 00:04:22;;;;;;;3.55;1.70;;;9.40;99.90;;;;;;10358168;28;20026;-64
2023/12/28 00:09:23;;;;;;;5.03;2.20;;;9.40;99.90;;;;;;10339610;28;20049;-64
2023/12/28 00:14:24;;;;;;;4.72;2.03;;;9.40;99.90;;;;;;10358422;28;20036;-65
2023/12/28 00:19:24;;;;;;;4.38;2.00;;;9.40;99.90;;;;;;10354939;28;20040;-65
2023/12/28 00:24:25;;;;;;;3.60;2.05;;;9.40;99.90;;;;;;10356473;28;20388;-66
2023/12/28 00:29:25;;;;;;;3.33;2.05;;;9.40;99.90;;;;;;10354884;28;20030;-66
2023/12/28 00:34:26;;;;;;;4.68;2.17;;;9.40;99.90;;;;;;10336031;28;20113;-63
2023/12/28 00:39:27;;;;;;;3.33;2.10;;;9.50;99.90;;;;;;10351625;28;20026;-65
2023/12/28 00:44:27;;;;;;;3.25;2.10;;;9.50;99.90;;;;;;10352352;28;20088;-65
2023/12/28 00:49:28;;;;;;;4.35;1.95;;;9.50;99.90;;;;;;10361472;28;20018;-64
2023/12/28 00:54:28;;;;;;;3.53;2.00;;;9.50;99.90;;;;;;10354072;28;20461;-66
2023/12/28 00:59:29;;;;;;;3.72;2.03;;;9.50;99.90;;;;;;10347033;28;20526;-65
2023/12/28 01:04:30;;;;;;;3.70;2.10;;;9.50;99.90;;;;;;10360406;28;20022;-65
2023/12/28 01:09:32;;;;;;;2.85;1.90;;;9.50;99.90;;;;;;10366022;28;20018;-64
2023/12/28 01:14:32;;;;;;;4.63;2.40;;;9.50;99.90;;;;;;10365792;28;20053;-65
2023/12/28 01:19:33;;;;;;;4.40;2.28;;;9.50;99.90;;;;;;10364797;28;20098;-66
2023/12/28 01:24:34;;;;;;;3.15;2.20;;;9.50;99.90;;;;;;10357730;28;20450;-65
2023/12/28 01:29:34;;;;;;;5.72;2.53;;;9.50;99.90;;;;;;10360968;28;20426;-66
2023/12/28 01:34:35;;;;;;;5.55;2.30;;;9.50;99.90;;;;;;10361322;28;20018;-66
2023/12/28 01:39:35;;;;;;;3.13;2.10;;;9.50;99.90;;;;;;10357978;28;20029;-65
2023/12/28 01:44:36;;;;;;;5.07;2.28;;;9.50;99.90;;;;;;10362155;28;20129;-65
2023/12/28 01:49:37;;;;;;;3.17;2.30;;;9.50;99.90;;;;;;10347129;28;20018;-66
2023/12/28 01:54:39;;;;;;;4.65;2.55;;;9.60;99.90;;;;;;10357707;28;20097;-66
2023/12/28 01:59:40;;;;;;;4.55;2.47;;;9.60;99.90;;;;;;10361054;28;20022;-64
2023/12/28 02:04:40;;;;;;;3.72;2.00;;;9.60;99.90;;;;;;10340644;28;20034;-65
2023/12/28 02:09:41;;;;;;;5.90;2.28;;;9.60;99.90;;;;;;10360468;28;20010;-66
2023/12/28 02:14:42;;;;;;;2.70;2.05;;;9.60;99.90;;;;;;10335105;28;20030;-65
2023/12/28 02:19:50;;;;;;;3.42;2.13;;;9.60;99.90;;;;;;10365796;28;20022;-65
2023/12/28 02:25:13;;;;;;;4.03;2.38;;;9.60;99.90;;;;;;10357397;28;20108;-66
2023/12/28 02:30:16;;;;;;;4.05;2.35;;;9.60;99.90;;;;;;10355085;28;20571;-66
2023/12/28 02:35:34;;;;;;;5.47;2.05;;;9.60;99.90;;;;;;10341211;28;20434;-66
2023/12/28 02:40:39;;;;;;;3.08;1.85;;;9.60;99.90;;;;;;10358816;28;20021;-67
2023/12/28 02:45:40;;;;;;;3.85;2.28;;;9.70;99.90;;;;;;10358793;28;20022;-67
2023/12/28 02:50:41;;;;;;;5.03;2.17;;;9.70;99.90;;;;;;10362515;28;20014;-67
2023/12/28 02:55:41;;;;;;;5.38;2.35;;;9.70;99.90;;;;;;10361900;28;20022;-67
2023/12/28 03:00:42;;;;;;;2.60;1.83;;;9.70;99.90;;;;;;10369253;28;20018;-67
2023/12/28 03:05:42;;;;;;;3.92;2.40;;;9.70;99.90;;;;;;10358979;28;20113;-69
2023/12/28 03:10:43;;;;;;;5.68;2.10;;;9.70;99.90;;;;;;10365560;28;20019;-67
2023/12/28 03:15:43;;;;;;;3.75;1.70;;;9.70;99.90;;;;;;10344741;28;20485;-67
2023/12/28 03:20:44;;;;;;;4.57;2.15;;;9.70;99.90;;;;;;10365453;28;20570;-67
2023/12/28 03:25:45;;;;;;;3.50;1.77;;;9.70;99.90;;;;;;10357328;28;20482;-67
2023/12/28 03:30:45;;;;;;;4.97;1.70;;;9.70;99.90;;;;;;10364545;28;20030;-67
2023/12/28 03:35:46;;;;;;;4.05;1.30;;;9.80;99.90;;;;;;10359213;28;20116;-67
2023/12/28 03:40:47;;;;;;;5.38;1.48;;;9.80;99.90;;;;;;10359115;28;20432;-67
2023/12/28 03:45:48;;;;;;;5.30;1.70;;;9.80;99.90;;;;;;10358016;28;20318;-67
2023/12/28 03:50:48;;;;;;;3.22;1.75;;;9.80;99.90;;;;;;10358689;28;20025;-67
2023/12/28 03:55:49;;;;;;;4.90;1.63;;;9.80;99.90;;;;;;10357296;28;20112;-68
2023/12/28 04:00:49;;;;;;;4.43;1.63;;;9.80;99.90;;;;;;10362888;28;20037;-67
2023/12/28 04:05:51;;;;;;;6.45;1.60;;;9.80;99.90;;;;;;10359362;28;20032;-67
2023/12/28 04:10:51;;;;;;;5.30;1.77;;;9.80;99.90;;;;;;10355605;28;20029;-67
2023/12/28 04:15:52;;;;;;;6.70;1.80;;;9.80;99.90;;;;;;10362884;28;20060;-67
2023/12/28 04:20:53;;;;;;;4.47;1.98;;;9.80;99.90;;;;;;10359201;28;20017;-67
2023/12/28 04:25:53;;;;;;;4.88;1.50;;;9.80;99.90;;;;;;10354071;28;20064;-67
2023/12/28 04:30:54;;;;;;;3.85;1.40;;;9.90;99.90;;;;;;10357274;28;20545;-67
2023/12/28 04:35:54;;;;;;;3.72;1.42;;;9.90;99.90;;;;;;10352789;28;20033;-68
2023/12/28 04:40:55;;;;;;;5.47;1.60;;;9.90;99.90;;;;;;10361734;28;20022;-67
2023/12/28 04:45:56;;;;;;;3.30;1.48;;;9.90;99.90;;;;;;10363911;28;20079;-67
2023/12/28 04:50:56;;;;;;;6.88;1.63;;;9.90;99.90;;;;;;10360106;28;20378;-67
2023/12/28 04:55:57;;;;;;;5.18;1.65;;;9.90;99.90;;;;;;10362347;28;20025;-67
2023/12/28 05:00:58;;;;;;;12.18;2.40;;;9.90;99.90;;;;;;10361874;28;20030;-67
2023/12/28 05:06:02;;;;;;;8.35;1.90;;;9.90;99.90;;;;;;10359552;28;20053;-67
2023/12/28 05:11:02;;;;;;;7.00;1.80;;;9.90;99.90;;;;;;10358533;28;20026;-67
2023/12/28 05:16:03;;;;;;;6.90;1.92;;;9.90;99.90;;;;;;10361992;28;20367;-67
2023/12/28 05:21:04;;;;;;;4.68;1.77;;;9.90;99.90;;;;;;10365841;28;20091;-67
2023/12/28 05:26:05;;;;;;;6.70;1.55;;;9.90;99.90;;;;;;10362633;28;20029;-67
2023/12/28 05:31:06;;;;;;;8.57;1.77;;;10.00;99.90;;;;;;10352968;28;20235;-67
2023/12/28 05:36:07;;;;;;;6.90;1.60;;;10.00;99.90;;;;;;10359318;28;21455;-67
2023/12/28 05:41:09;;;;;;;8.75;1.90;;;10.00;99.90;;;;;;10361899;28;20277;-67
2023/12/28 05:46:10;;;;;;;2.38;1.20;;;10.00;99.90;;;;;;10358782;28;20482;-67
2023/12/28 05:51:10;;;;;;;9.63;2.00;;;10.00;99.90;;;;;;10362736;28;20109;-67
2023/12/28 05:56:11;;;;;;;7.30;1.73;;;10.00;99.90;;;;;;10365481;28;20036;-68
2023/12/28 06:01:12;;;;;;;5.60;1.77;;;10.00;99.90;;;;;;10361899;28;20045;-67
2023/12/28 06:06:12;;;;;;;11.95;2.00;;;10.00;99.90;;;;;;10361411;28;20444;-67
2023/12/28 06:11:13;;;;;;;14.68;1.80;;;9.60;99.90;;;;;;10362119;28;20402;-67
2023/12/28 06:16:13;;;;;;;6.68;1.90;;;10.00;99.90;;;;;;10368312;28;20303;-67
2023/12/28 06:21:14;;;;;;;7.72;1.40;;;10.00;99.90;;;;;;10367558;28;20022;-67
2023/12/28 06:26:15;;;;;;;5.30;1.60;;;10.00;99.90;;;;;;10367279;28;20030;-67
2023/12/28 06:31:15;;;;;;;6.00;1.52;;;10.10;99.90;;;;;;10365673;28;20422;-67
2023/12/28 06:36:18;;;;;;;11.30;1.75;;;10.10;99.90;;;;;;10363516;28;20019;-67
2023/12/28 06:41:18;;;;;;;9.10;1.33;;;10.10;99.90;;;;;;10370555;28;20560;-68
2023/12/28 06:46:19;;;;;;;5.78;1.65;;;10.10;99.90;;;;;;10361871;28;20049;-67
2023/12/28 06:51:20;;;;;;;3.63;1.50;;;10.10;99.90;;;;;;10358570;28;20083;-67
2023/12/28 06:56:21;;;;;;;8.48;1.73;;;10.10;99.90;;;;;;10362220;28;20040;-68
2023/12/28 07:01:21;;;;;;;5.72;2.33;;;10.20;99.90;;;;;;10356659;28;20042;-67
2023/12/28 07:06:22;;;;;;;6.90;2.70;;;10.10;99.90;;;;;;10349330;28;20030;-68
2023/12/28 07:11:22;;;;;;;8.10;2.05;;;10.20;99.90;;;;;;10364849;28;20029;-67
2023/12/28 07:16:23;;;;;;;7.05;1.98;;;10.20;99.90;;;;;;10358147;28;20087;-68
2023/12/28 07:21:24;;;;;;;7.85;1.55;;;10.20;99.90;;;;;;10347197;28;20638;-67
2023/12/28 07:26:25;;;;;;;5.88;1.80;;;10.20;99.90;;;;;;10371315;28;20045;-73
2023/12/28 07:31:27;;;;;;;6.53;1.70;;;11.20;99.90;;;;;;10364884;28;20431;-69
2023/12/28 07:36:27;;;;;;;7.22;1.25;;;10.30;99.90;;;;;;10348666;28;20462;-69
2023/12/28 07:41:28;;;;;;;9.07;1.67;;;10.40;99.90;;;;;;10371883;28;20037;-69
2023/12/28 07:46:28;;;;;;;6.68;1.80;;;10.40;99.90;;;;;;10365075;28;20038;-70
2023/12/28 07:51:29;;;;;;;6.80;1.85;;;10.30;99.90;;;;;;10364239;28;20446;-69
2023/12/28 07:56:30;;;;;;;7.68;1.40;;;10.30;99.90;;;;;;10362479;28;20410;-69
2023/12/28 08:01:32;;;;;;;6.88;1.52;;;10.30;99.90;;;;;;10366628;28;20030;-69
2023/12/28 08:06:33;;;;;;;7.63;1.48;;;10.30;99.90;;;;;;10361172;28;20034;-68
2023/12/28 08:11:34;;;;;;;9.20;1.52;;;10.30;99.90;;;;;;10376438;28;20070;-69
2023/12/28 08:16:35;;;;;;;8.43;2.13;;;10.30;99.90;;;;;;10361445;28;20037;-69
2023/12/28 08:21:35;;;;;;;8.15;1.90;;;10.50;99.90;;;;;;10358323;28;20117;-69
2023/12/28 08:26:36;;;;;;;6.78;1.20;;;10.30;99.90;;;;;;10364690;28;20417;-69
2023/12/28 08:31:36;;;;;;;10.40;1.73;;;10.40;99.90;;;;;;10358421;28;20064;-68
2023/12/28 08:36:37;;;;;;;10.75;1.95;;;10.40;99.90;;;;;;10360234;28;20029;-69
2023/12/28 08:41:38;;;;;;;7.93;1.50;;;10.40;99.90;;;;;;10361767;28;20073;-67
2023/12/28 08:46:38;;;;;;;11.55;1.95;;;10.40;99.90;;;;;;10356946;28;20022;-68
2023/12/28 08:51:39;;;;;;;9.85;1.60;;;10.40;99.90;;;;;;10365108;28;20449;-67
2023/12/28 08:56:39;;;;;;;15.68;1.90;;;10.40;99.90;;;;;;10364654;28;20774;-68
2023/12/28 09:01:40;;;;;;;8.93;1.85;;;10.50;99.90;;;;;;10361854;28;20501;-67
2023/12/28 09:06:41;;;;;;;20.00;2.13;;;11.40;99.90;;;;;;10357094;28;20038;-66
2023/12/28 09:11:41;;;;;;;16.48;2.22;;;10.50;99.90;;;;;;10364836;28;20057;-67
2023/12/28 09:16:43;;;;;;;9.10;2.28;;;10.60;99.90;;;;;;10362545;28;20112;-70
2023/12/28 09:21:44;;;;;;;9.35;2.08;;;10.60;99.90;;;;;;10360122;28;20051;-67
2023/12/28 09:26:45;;;;;;;11.23;2.20;;;10.60;99.90;;;;;;10363917;28;20067;-67
2023/12/28 09:31:46;;;;;;;9.90;1.92;;;10.70;99.90;;;;;;10350772;28;20029;-66
2023/12/28 09:36:46;;;;;;;10.98;2.35;;;10.70;99.90;;;;;;10364272;28;20116;-68
2023/12/28 09:41:55;;;;;;;7.60;1.98;;;10.70;99.90;;;;;;10366221;28;20180;-67
2023/12/28 09:46:57;;;;;;;9.77;2.50;;;10.70;99.90;;;;;;10378570;28;20085;-66
2023/12/28 09:51:58;;;;;;;10.55;2.92;;;10.70;99.90;;;;;;10364763;28;20052;-68
2023/12/28 09:56:59;;;;;;;4.68;1.90;;;10.70;99.90;;;;;;10363825;28;20026;-66
2023/12/28 10:02:01;;;;;;;12.10;1.88;;;10.80;99.90;;;;;;10369024;28;20037;-65
2023/12/28 10:07:02;;;;;;;9.00;2.30;;;10.80;99.90;;;;;;10370642;28;20021;-66
2023/12/28 10:12:03;;;;;;;13.63;2.53;;;10.80;99.90;;;;;;10370015;28;20077;-68
2023/12/28 10:17:04;;;;;;;13.05;2.38;;;10.80;99.90;;;;;;10363961;28;20021;-68
2023/12/28 10:22:04;;;;;;;12.00;2.35;;;10.80;99.90;;;;;;10373835;28;20239;-68
2023/12/28 10:27:05;;;;;;;7.50;2.50;;;10.80;99.90;;;;;;10351402;28;20034;-67
2023/12/28 10:32:06;;;;;;;11.73;2.47;;;10.80;99.90;;;;;;10364802;28;20387;-67
2023/12/28 10:37:07;;;;;;;9.15;2.10;;;10.90;99.90;;;;;;10371315;28;20022;-67
2023/12/28 10:42:11;;;;;;;14.68;2.13;;;10.80;99.90;;;;;;10363668;28;20050;-65
2023/12/28 10:47:17;;;;;;;13.20;2.72;;;10.80;99.90;;;;;;10362919;28;20397;-67
2023/12/28 10:52:19;;;;;;;11.70;2.20;;;10.90;99.90;;;;;;10369821;28;20069;-68
2023/12/28 10:57:27;;;;;;;7.82;1.85;;;10.90;99.90;;;;;;10367151;28;20393;-66
2023/12/28 11:02:32;;;;;;;10.32;2.80;;;10.90;99.90;;;;;;10368424;28;20077;-66
2023/12/28 11:07:35;;;;;;;12.48;1.98;;;10.90;99.90;;;;;;10362928;28;20049;-66
2023/12/28 11:12:37;;;;;;;10.45;2.08;;;10.90;99.90;;;;;;10366909;28;20030;-67
2023/12/28 11:17:38;;;;;;;7.45;1.92;;;10.90;99.90;;;;;;10361004;28;20034;-67
2023/12/28 11:22:40;;;;;;;5.45;1.60;;;10.90;99.90;;;;;;10369399;28;20037;-66
2023/12/28 11:27:40;;;;;;;9.07;1.80;;;10.90;99.90;;;;;;10369736;28;20026;-66
2023/12/28 11:32:43;;;;;;;10.18;2.20;;;10.90;99.90;;;;;;10363780;28;20022;-67
2023/12/28 11:37:48;;;;;;;9.55;2.65;;;11.00;99.90;;;;;;10360493;28;20076;-66
2023/12/28 11:42:54;;;;;;;9.10;1.88;;;10.90;99.90;;;;;;10368036;28;20441;-66
2023/12/28 11:48:01;;;;;;;8.85;1.80;;;10.90;99.90;;;;;;10361003;28;20052;-66
2023/12/28 11:53:02;;;;;;;7.15;1.95;;;10.90;99.90;;;;;;10359951;28;20025;-67
2023/12/28 11:58:03;;;;;;;13.38;2.78;;;10.90;99.90;;;;;;10364969;28;20046;-66
2023/12/28 12:03:04;;;;;;;9.57;1.58;;;11.00;99.90;;;;;;10369035;28;20092;-67
2023/12/28 12:08:08;;;;;;;6.50;1.67;;;10.90;99.90;;;;;;10370422;28;20052;-67
2023/12/28 12:13:09;;;;;;;8.38;1.75;;;11.00;99.90;;;;;;10367877;28;20029;-65
2023/12/28 12:18:09;;;;;;;12.32;2.00;;;11.00;99.90;;;;;;10369430;28;20021;-68
2023/12/28 12:23:11;;;;;;;11.05;1.65;;;11.00;99.90;;;;;;10364251;28;20026;-67
2023/12/28 12:28:12;;;;;;;8.43;1.88;;;11.00;99.90;;;;;;10368738;28;20551;-67
2023/12/28 12:33:15;;;;;;;9.57;2.15;;;11.00;99.90;;;;;;10355095;28;20050;-68
2023/12/28 12:38:16;;;;;;;7.88;1.80;;;11.00;99.90;;;;;;10357345;28;20034;-67
2023/12/28 12:43:19;;;;;;;11.75;2.15;;;11.10;99.90;;;;;;10363474;28;20037;-65
2023/12/28 12:48:19;;;;;;;7.65;1.85;;;11.10;99.90;;;;;;10357280;28;20025;-67
2023/12/28 12:53:21;;;;;;;10.93;1.67;;;11.00;99.90;;;;;;10355130;28;20033;-66
2023/12/28 12:58:22;;;;;;;10.13;2.35;;;11.00;99.90;;;;;;10358547;28;20115;-66
2023/12/28 13:03:28;;;;;;;9.27;2.13;;;11.00;99.90;;;;;;10362735;28;20026;-66
2023/12/28 13:08:29;;;;;;;13.07;1.90;;;11.00;99.90;;;;;;10358803;28;20044;-66
2023/12/28 13:13:30;;;;;;;9.05;2.25;;;11.00;99.90;;;;;;10366808;28;20048;-68
2023/12/28 13:18:32;;;;;;;11.13;1.98;;;10.90;99.90;;;;;;10361174;28;20030;-70
2023/12/28 13:23:32;;;;;;;9.23;2.15;;;11.00;99.90;;;;;;10366161;28;20028;-65
2023/12/28 13:28:33;;;;;;;6.82;2.13;;;11.00;99.90;;;;;;10369333;28;20025;-68
2023/12/28 13:33:34;;;;;;;7.07;2.20;;;11.00;99.90;;;;;;10365504;28;20049;-68
2023/12/28 13:38:34;;;;;;;8.20;1.90;;;11.00;99.90;;;;;;10361273;28;20041;-67
2023/12/28 13:43:35;;;;;;;12.55;2.25;;;11.10;99.90;;;;;;10367959;28;20058;-68
2023/12/28 13:48:38;;;;;;;12.63;1.90;;;11.10;99.90;;;;;;10354069;28;20472;-66
2023/12/28 13:53:40;;;;;;;9.82;2.50;;;11.00;99.90;;;;;;10365153;28;20025;-69
2023/12/28 13:58:40;;;;;;;14.75;2.13;;;11.00;99.90;;;;;;10355877;28;20739;-68
2023/12/28 14:03:41;;;;;;;12.48;2.15;;;11.00;99.90;;;;;;10363414;28;20038;-67
2023/12/28 14:08:42;;;;;;;10.30;1.98;;;11.00;99.90;;;;;;10368806;28;20516;-67
2023/12/28 14:13:42;;;;;;;6.40;2.28;;;11.00;99.90;;;;;;10343906;28;20029;-67
2023/12/28 14:18:43;;;;;;;15.82;2.10;;;11.00;99.90;;;;;;10366891;28;20325;-67
2023/12/28 14:23:44;;;;;;;10.05;1.95;;;11.00;99.90;;;;;;10363948;28;20049;-67
2023/12/28 14:28:44;;;;;;;14.50;2.83;;;10.90;99.90;;;;;;10366142;28;20251;-69
2023/12/28 14:33:45;;;;;;;7.00;1.83;;;11.00;99.90;;;;;;10350180;28;20034;-69
2023/12/28 14:38:46;;;;;;;15.23;2.80;;;11.00;99.90;;;;;;10359253;28;20033;-68
2023/12/28 14:43:47;;;;;;;10.25;2.50;;;11.00;99.90;;;;;;10359650;28;20025;-70
2023/12/28 14:48:47;;;;;;;8.70;2.20;;;11.00;99.90;;;;;;10363033;28;20032;-69
2023/12/28 14:53:48;;;;;;;9.63;2.53;;;10.90;99.90;;;;;;10354913;28;20030;-69
2023/12/28 14:58:49;;;;;;;8.18;1.90;;;10.90;99.90;;;;;;10361196;28;20087;-69
2023/12/28 15:03:49;;;;;;;11.18;2.50;;;10.90;99.90;;;;;;10368247;28;20084;-69
2023/12/28 15:08:50;;;;;;;8.73;1.92;;;10.90;99.90;;;;;;10339031;28;20524;-72
2023/12/28 15:13:51;;;;;;;11.23;1.83;;;11.00;99.90;;;;;;10359393;28;20132;-68
2023/12/28 15:18:52;;;;;;;13.50;2.60;;;11.00;99.90;;;;;;10357126;28;20037;-70
2023/12/28 15:23:53;;;;;;;9.48;1.63;;;11.00;99.90;;;;;;10356666;28;20463;-70
2023/12/28 15:28:53;;;;;;;9.40;1.80;;;11.10;99.90;;;;;;10343459;28;20041;-70
2023/12/28 15:33:54;;;;;;;9.35;1.80;;;11.00;99.90;;;;;;10354447;28;20040;-70
2023/12/28 15:38:54;;;;;;;9.63;2.00;;;11.00;99.90;;;;;;10365016;28;20096;-70
2023/12/28 15:43:55;;;;;;;12.15;2.28;;;11.00;99.90;;;;;;10367018;28;20032;-70
2023/12/28 15:48:55;;;;;;;10.93;2.33;;;11.00;99.90;;;;;;10361716;28;20041;-70
2023/12/28 15:53:56;;;;;;;9.68;2.65;;;11.00;99.90;;;;;;10360660;28;20052;-71
2023/12/28 15:58:56;;;;;;;8.95;1.80;;;11.00;99.90;;;;;;10345962;28;20029;-69
2023/12/28 16:03:57;;;;;;;9.23;2.13;;;10.90;99.90;;;;;;10355700;28;20034;-69
2023/12/28 16:08:58;;;;;;;8.32;2.03;;;10.90;99.90;;;;;;10369289;28;20146;-70
2023/12/28 16:13:59;;;;;;;13.75;2.65;;;11.00;99.90;;;;;;10358911;28;20018;-70
2023/12/28 16:19:00;;;;;;;10.05;1.88;;;10.90;99.90;;;;;;10367508;28;20457;-69
2023/12/28 16:24:00;;;;;;;8.05;1.73;;;10.90;99.90;;;;;;10362333;28;20341;-69
2023/12/28 16:29:02;;;;;;;8.85;2.05;;;10.90;99.90;;;;;;10362757;28;20034;-70
2023/12/28 16:34:03;;;;;;;9.05;2.38;;;10.90;99.90;;;;;;10353752;28;20018;-69
2023/12/28 16:39:03;;;;;;;10.32;2.38;;;10.90;99.90;;;;;;10356065;28;20513;-70
2023/12/28 16:44:04;;;;;;;8.75;2.10;;;10.90;99.90;;;;;;10352910;28;20041;-72
2023/12/28 16:49:05;;;;;;;10.52;2.67;;;10.90;99.90;;;;;;10351935;28;20057;-69
2023/12/28 16:54:05;;;;;;;5.82;2.05;;;10.90;99.90;;;;;;10336947;28;20029;-68
2023/12/28 16:59:06;;;;;;;8.23;2.70;;;10.90;99.90;;;;;;10364013;28;20044;-70
2023/12/28 17:04:06;;;;;;;12.95;2.58;;;10.90;99.90;;;;;;10350169;28;20122;-70
2023/12/28 17:09:09;;;;;;;7.30;1.77;;;10.90;99.90;;;;;;10365058;28;20018;-69
2023/12/28 17:14:10;;;;;;;7.20;2.35;;;10.90;99.90;;;;;;10368205;28;20490;-69
2023/12/28 17:19:11;;;;;;;9.77;1.80;;;10.90;99.90;;;;;;10359460;28;20026;-70
2023/12/28 17:24:18;;;;;;;12.68;2.88;;;10.90;99.90;;;;;;10357944;28;20029;-68
2023/12/28 17:29:20;;;;;;;9.65;1.52;;;11.00;99.90;;;;;;10354808;28;20342;-71
2023/12/28 17:34:21;;;;;;;10.88;2.15;;;11.00;99.90;;;;;;10362545;28;20034;-70
2023/12/28 17:39:24;;;;;;;6.85;2.70;;;11.00;99.90;;;;;;10359581;28;20034;-69
2023/12/28 17:44:30;;;;;;;10.48;1.90;;;11.00;99.90;;;;;;10360351;28;20029;-71
2023/12/28 17:49:31;;;;;;;5.85;1.67;;;11.30;99.90;;;;;;10363543;28;20478;-69
2023/12/28 17:54:32;;;;;;;7.68;1.40;;;11.00;99.90;;;;;;10367896;28;20036;-69
2023/12/28 17:59:33;;;;;;;8.23;2.17;;;11.00;99.90;;;;;;10365218;28;20029;-69
2023/12/28 18:04:33;;;;;;;8.20;2.28;;;11.00;99.90;;;;;;10352039;28;20045;-69
2023/12/28 18:09:40;;;;;;;10.05;1.83;;;11.00;99.90;;;;;;10356457;28;20104;-71
2023/12/28 18:14:40;;;;;;;7.75;1.90;;;11.00;99.90;;;;;;10366065;28;20025;-72
2023/12/28 18:19:41;;;;;;;10.10;1.98;;;11.00;99.90;;;;;;10360241;28;20030;-71
2023/12/28 18:24:41;;;;;;;8.88;1.98;;;11.00;99.90;;;;;;10367061;28;20022;-73
2023/12/28 18:29:48;;;;;;;5.65;1.60;;;11.00;99.90;;;;;;10365546;28;20045;-72
2023/12/28 18:34:51;;;;;;;6.03;1.60;;;11.00;99.90;;;;;;10346395;28;20113;-72
2023/12/28 18:39:52;;;;;;;5.55;1.40;;;11.00;99.90;;;;;;10362884;28;20079;-71
2023/12/28 18:44:52;;;;;;;5.30;1.48;;;11.00;99.90;;;;;;10362291;28;20021;-72
2023/12/28 18:49:53;;;;;;;10.68;2.65;;;11.00;99.90;;;;;;10366911;28;20017;-71
2023/12/28 18:54:55;;;;;;;4.75;1.38;;;11.00;99.90;;;;;;10366172;28;20040;-74
2023/12/28 18:59:56;;;;;;;10.90;1.85;;;11.00;99.90;;;;;;10363388;28;20030;-69
2023/12/28 19:04:57;;;;;;;9.20;1.90;;;11.00;99.90;;;;;;10362871;28;20022;-75
2023/12/28 19:09:57;;;;;;;6.63;1.73;;;11.10;99.90;;;;;;10354698;28;20041;-70
2023/12/28 19:14:58;;;;;;;7.35;1.85;;;11.20;99.90;;;;;;10363783;28;20030;-69
2023/12/28 19:19:58;;;;;;;8.13;1.83;;;11.20;99.90;;;;;;10347773;28;20034;-70
2023/12/28 19:24:59;;;;;;;6.57;1.77;;;11.20;99.90;;;;;;10369722;28;20033;-70
2023/12/28 19:30:00;;;;;;;7.93;1.95;;;11.10;99.90;;;;;;10363360;28;20032;-69
2023/12/28 19:35:01;;;;;;;7.93;1.60;;;11.10;99.90;;;;;;10346366;28;20034;-71
2023/12/28 19:40:02;;;;;;;5.78;2.08;;;11.10;99.90;;;;;;10362079;28;20023;-69
2023/12/28 19:45:03;;;;;;;10.15;1.88;;;11.00;99.90;;;;;;10364312;28;20022;-69
2023/12/28 19:50:04;;;;;;;7.43;1.83;;;11.00;99.90;;;;;;10366785;28;20026;-70
2023/12/28 19:55:05;;;;;;;6.47;1.45;;;11.00;99.90;;;;;;10360711;28;20022;-70
2023/12/28 20:00:07;;;;;;;9.93;2.10;;;11.00;99.90;;;;;;10364660;28;20045;-70
2023/12/28 20:05:09;;;;;;;7.68;1.77;;;11.00;99.90;;;;;;10357477;28;20026;-70
2023/12/28 20:10:10;;;;;;;10.63;1.80;;;11.00;99.90;;;;;;10359499;28;20026;-70
2023/12/28 20:15:13;;;;;;;6.25;1.67;;;11.00;99.90;;;;;;10363502;28;20033;-69
2023/12/28 20:20:13;;;;;;;8.38;1.77;;;11.00;99.90;;;;;;10338208;28;20112;-70
2023/12/28 20:25:14;;;;;;;8.52;1.90;;;11.00;99.90;;;;;;10366080;28;20026;-70
2023/12/28 20:30:17;;;;;;;9.63;2.28;;;11.10;99.90;;;;;;10360585;28;20443;-69
2023/12/28 20:35:17;;;;;;;6.20;1.77;;;11.00;99.90;;;;;;10364658;28;20061;-69
2023/12/28 20:40:18;;;;;;;11.05;1.85;;;11.00;99.90;;;;;;10362779;28;20120;-72
2023/12/28 20:45:18;;;;;;;8.88;1.63;;;11.00;99.90;;;;;;10351176;28;20217;-68
2023/12/28 20:50:20;;;;;;;10.20;2.28;;;11.00;99.90;;;;;;10354224;28;20040;-68
2023/12/28 20:55:20;;;;;;;7.68;1.58;;;11.40;99.90;;;;;;10350805;28;20041;-66
2023/12/28 21:00:21;;;;;;;7.65;1.90;;;11.00;99.90;;;;;;10359058;28;20505;-68
2023/12/28 21:05:21;;;;;;;8.68;1.60;;;11.00;99.90;;;;;;10353124;28;20121;-68
2023/12/28 21:10:23;;;;;;;7.97;1.70;;;11.00;99.90;;;;;;10357557;28;20506;-67
2023/12/28 21:15:24;;;;;;;7.75;1.77;;;11.00;99.90;;;;;;10357677;28;20498;-68
2023/12/28 21:20:25;;;;;;;4.85;1.83;;;11.00;99.90;;;;;;10354189;28;20393;-67
2023/12/28 21:25:25;;;;;;;5.43;1.60;;;11.10;99.90;;;;;;10361262;28;20036;-67
2023/12/28 21:30:26;;;;;;;6.45;2.20;;;11.00;99.90;;;;;;10361873;28;20038;-66
2023/12/28 21:35:27;;;;;;;7.63;1.42;;;11.00;99.90;;;;;;10364775;28;20022;-67
2023/12/28 21:40:27;;;;;;;4.93;1.60;;;11.00;99.90;;;;;;10357402;28;20117;-68
2023/12/28 21:45:28;;;;;;;6.30;1.80;;;11.00;99.90;;;;;;10360956;28;20026;-66
2023/12/28 21:50:29;;;;;;;3.90;1.80;;;11.00;99.90;;;;;;10363497;28;20101;-67
2023/12/28 21:55:29;;;;;;;7.60;1.80;;;11.00;99.90;;;;;;10362609;28;20028;-68
2023/12/28 22:00:30;;;;;;;4.93;1.48;;;11.00;99.90;;;;;;10362168;28;20033;-67
2023/12/28 22:05:30;;;;;;;5.88;1.55;;;11.00;99.90;;;;;;10368189;28;20498;-70
2023/12/28 22:10:31;;;;;;;7.95;1.65;;;11.00;99.90;;;;;;10359572;28;20030;-66
2023/12/28 22:15:33;;;;;;;6.82;1.45;;;11.00;99.90;;;;;;10361780;28;20036;-67
2023/12/28 22:20:34;;;;;;;4.70;1.42;;;11.00;99.90;;;;;;10361960;28;20040;-67
2023/12/28 22:25:34;;;;;;;7.55;1.52;;;11.00;99.90;;;;;;10350736;28;20077;-66
2023/12/28 22:30:35;;;;;;;9.57;2.03;;;11.00;99.90;;;;;;10358571;28;20042;-67
2023/12/28 22:35:35;;;;;;;5.00;1.48;;;11.00;99.90;;;;;;10365747;28;20141;-67
2023/12/28 22:40:36;;;;;;;7.38;1.60;;;10.90;99.90;;;;;;10344651;28;20026;-67
2023/12/28 22:45:36;;;;;;;5.85;1.52;;;10.90;99.90;;;;;;10361292;28;20557;-67
2023/12/28 22:50:37;;;;;;;7.00;1.88;;;10.90;99.90;;;;;;10371139;28;20470;-66
2023/12/28 22:55:38;;;;;;;8.63;1.80;;;10.90;99.90;;;;;;10358663;28;20043;-67
2023/12/28 23:00:40;;;;;;;5.75;2.10;;;11.00;99.90;;;;;;10367061;28;20017;-67
2023/12/28 23:05:40;;;;;;;3.17;1.67;;;10.90;99.90;;;;;;10365730;28;20121;-67
2023/12/28 23:10:41;;;;;;;4.07;1.40;;;10.90;99.90;;;;;;10366256;28;20022;-67
2023/12/28 23:15:42;;;;;;;4.70;1.63;;;10.90;99.90;;;;;;10365860;28;20026;-66
2023/12/28 23:20:43;;;;;;;4.82;1.30;;;10.90;99.90;;;;;;10364463;28;20022;-67
2023/12/28 23:25:44;;;;;;;6.47;1.35;;;10.90;99.90;;;;;;10362889;28;20036;-67
2023/12/28 23:30:45;;;;;;;4.30;1.63;;;10.90;99.90;;;;;;10365790;28;20034;-67
2023/12/28 23:35:45;;;;;;;6.20;1.42;;;10.90;99.90;;;;;;10364854;28;20022;-67
2023/12/28 23:40:46;;;;;;;4.30;1.30;;;11.00;99.90;;;;;;10355133;28;20494;-67
2023/12/28 23:45:46;;;;;;;5.93;1.52;;;10.90;99.90;;;;;;10361303;28;20027;-67
2023/12/28 23:50:47;;;;;;;6.28;1.60;;;10.90;99.90;;;;;;10367603;28;20659;-66
2023/12/28 23:55:47;;;;;;;3.58;1.33;;;11.00;99.90;;;;;;10360705;28;20500;-67
